Search for airport 
image banner adimage banner adimage banner ad
image banner ad

5PA5 - Monongahela Valley Hospital

Located in Monongahela, United States

ICAO - 5PA5, IATA -

Data provided by Airmate  

General information

Coordinates: N40°10'56" W79°54'36"
Elevation is 1104 feet MSL.
Magnetic variation is -09° East
View others Airports in Pennsylvania

Operational data

Special qualification required
Current time UTC:
Current local time:
Weather at : KAGC - Allegheny County ( 19 km )
METAR: KAGC 152153Z 30010G19KT 160V340 10SM CLR 22/11 A2991 RMK AO2 SLP128 T02220111
TAF: KAGC 151720Z 1518/1618 32010G20KT P6SM BKN040 FM152300 33008KT P6SM SCT120 FM160300 32005KT P6SM SKC
View NOTAMs / SUP AIP / TFR affecting this airport [VIEW]
Communications frequencies: [VIEW]

Runways:

Airport contact information

Address: Monongahela United States

Satellite view of 5PA5